Latest Weather Observations for Whyalla

IDS60801

Issued at 8:11 am CST Friday 21 September 2018 (issued every 10 minutes, with the page automatically refreshed every 10 minutes)

About weather observations | Map of weather stations | Latest weather observations for SA | Other Formats
Station Details ID: 018120 Name: WHYALLA AERO Lat: -33.05 Lon: 137.52 Height: 9.3 m
Data from the previous 72 hours. | See also: Recent months at Whyalla
Date/Time
CST
Temp
°C
App
Temp
°C
Dew
Point
°C
Rel
Hum
%
Delta-T
°C
Wind Press
QNH
hPa
Press
MSL
hPa
Rain since
9am
mm
Dir  Spd
km/h
Gust
km/h
Spd
kts
Gust
kts
21/08:00am 13.1 13.1 11.0 87 1.1 WSW 2 6 1 3 1028.7 1028.7 0.0
21/07:43am 11.7 10.9 9.6 87 1.1 W 4 6 2 3 1028.4 1028.4 0.0
21/07:30am 10.8 9.5 9.1 89 0.8 WNW 6 7 3 4 1028.4 1028.4 0.0
21/07:00am 7.9 5.6 7.3 96 0.3 NW 9 9 5 5 1027.8 1027.8 0.0
21/06:50am 6.4 3.7 5.5 94 0.4 NW 9 11 5 6 1027.7 1027.7 0.0
21/06:30am 5.1 2.5 4.1 93 0.4 NW 7 9 4 5 1027.4 1027.4 0.0
21/06:00am 5.3 2.7 4.1 92 0.5 W 7 9 4 5 1027.2 1027.2 0.0
21/05:30am 5.4 2.5 4.4 93 0.4 WNW 9 9 5 5 1027.1 1027.1 0.0
21/05:00am 5.7 3.2 4.7 93 0.4 WNW 7 9 4 5 1026.9 1026.9 0.0
21/04:30am 6.0 3.7 4.8 92 0.5 W 6 6 3 3 1026.6 1026.6 0.0
21/04:00am 7.2 5.0 6.1 93 0.5 WSW 7 9 4 5 1026.4 1026.4 0.0
21/03:30am 7.4 4.9 6.5 94 0.4 WSW 9 9 5 5 1026.2 1026.2 0.0
21/03:00am 7.1 4.5 5.9 92 0.5 W 9 11 5 6 1026.3 1026.3 0.0
21/02:30am 7.2 4.5 5.7 90 0.7 WSW 9 9 5 5 1026.5 1026.5 0.0
21/02:00am 7.4 4.8 6.0 91 0.6 SW 9 13 5 7 1026.5 1026.5 0.0
21/01:30am 6.7 4.0 3.7 81 1.3 SW 7 9 4 5 1026.6 1026.6 0.0
21/01:00am 6.8 4.2 4.1 83 1.2 SW 7 9 4 5 1026.7 1026.7 0.0
21/12:30am 7.6 4.8 5.2 85 1.1 WSW 9 9 5 5 1026.8 1026.8 0.0
21/12:00am 7.5 5.1 4.5 81 1.3 NW 6 7 3 4 1026.9 1026.9 0.0
 
Date/Time
CST
Temp
°C
App
Temp
°C
Dew
Point
°C
Rel
Hum
%
Delta-T
°C
Wind Press
QNH
hPa
Press
MSL
hPa
Rain since
9am
mm
Dir  Spd
km/h
Gust
km/h
Spd
kts
Gust
kts
20/11:30pm 9.1 8.3 6.4 83 1.2 CALM 0 0 0 0 1027.0 1027.0 0.0
20/11:00pm 8.8 6.5 5.7 81 1.4 W 7 7 4 4 1027.2 1027.2 0.0
20/10:30pm 9.1 6.8 5.8 80 1.5 WSW 7 7 4 4 1027.3 1027.3 0.0
20/10:00pm 9.9 8.1 7.0 82 1.4 WSW 6 7 3 4 1027.2 1027.2 0.0
20/09:30pm 10.4 9.0 7.1 80 1.6 SW 4 6 2 3 1027.2 1027.2 0.0
20/09:00pm 10.5 8.6 7.4 81 1.5 S 7 9 4 5 1027.0 1027.0 0.0
20/08:30pm 11.3 9.7 7.8 79 1.7 S 6 9 3 5 1026.7 1026.7 0.0
20/08:00pm 11.9 10.2 8.4 79 1.7 S 7 9 4 5 1026.4 1026.4 0.0
20/07:30pm 12.5 11.4 8.6 77 1.9 S 4 7 2 4 1026.2 1026.2 0.0
20/07:00pm 13.2 11.6 8.9 75 2.2 SSE 7 9 4 5 1025.9 1025.9 0.0
20/06:30pm 14.0 12.7 9.2 73 2.4 SSE 6 9 3 5 1025.5 1025.5 0.0
20/06:00pm 14.6 11.9 8.8 68 2.9 SE 13 17 7 9 1025.2 1025.2 0.0
20/05:30pm 14.9 11.7 8.4 65 3.3 SSE 15 20 8 11 1024.9 1024.9 0.0
20/05:00pm 15.4 12.3 8.9 65 3.3 SE 15 20 8 11 1024.5 1024.5 0.0
20/04:30pm 15.6 12.1 8.8 64 3.5 SE 17 22 9 12 1024.3 1024.3 0.0
20/04:00pm 15.9 12.1 7.4 57 4.2 SE 17 24 9 13 1024.1 1024.1 0.0
20/03:30pm 16.1 12.2 8.8 62 3.7 SE 19 24 10 13 1024.3 1024.3 0.0
20/03:00pm 16.4 12.2 8.1 58 4.2 SE 20 28 11 15 1024.3 1024.3 0.0
20/02:30pm 16.2 12.2 8.9 62 3.7 SSE 20 30 11 16 1024.6 1024.6 0.0
20/02:00pm 16.1 11.9 8.3 60 4.0 SE 20 28 11 15 1024.9 1024.9 0.0
20/01:30pm 16.5 12.4 8.5 59 4.1 SSE 20 28 11 15 1025.1 1025.1 0.0
20/01:00pm 16.6 12.1 8.6 59 4.1 SE 22 32 12 17 1025.3 1025.3 0.0
20/12:30pm 17.0 12.6 7.4 53 4.8 SE 20 28 11 15 1025.6 1025.6 0.0
20/12:00pm 16.4 11.7 7.9 57 4.3 ESE 22 28 12 15 1025.6 1025.6 0.0
20/11:30am 17.2 13.4 7.5 53 4.8 SE 17 22 9 12 1025.6 1025.6 0.0
20/11:00am 16.9 13.0 7.3 53 4.8 SSE 17 26 9 14 1025.8 1025.8 0.0
20/10:30am 16.3 13.6 7.3 55 4.5 S 11 24 6 13 1025.7 1025.7 0.0
20/10:00am 16.5 13.8 7.2 54 4.6 SSW 11 22 6 12 1025.9 1025.9 0.0
20/09:30am 15.5 11.9 6.8 56 4.2 SSW 15 22 8 12 1025.9 1025.9 0.0
20/09:00am 15.5 11.4 6.2 54 4.5 SSW 17 26 9 14 1025.9 1025.9 0.0
20/08:30am 15.1 11.5 6.9 58 4.0 SW 15 22 8 12 1025.7 1025.7 0.0
20/08:00am 14.1 11.3 8.5 69 2.8 W 13 17 7 9 1025.2 1025.2 0.0
20/07:30am 12.3 9.4 8.2 76 2.0 WNW 13 15 7 8 1024.7 1024.7 0.0
20/07:00am 10.4 8.2 7.8 84 1.3 NW 9 11 5 6 1024.3 1024.3 0.0
20/06:30am 9.7 7.0 7.3 85 1.1 NW 11 13 6 7 1023.9 1023.9 0.0
20/06:00am 9.8 7.0 6.9 82 1.4 NW 11 11 6 6 1023.6 1023.6 0.0
20/05:30am 10.2 7.7 6.7 79 1.6 NNW 9 11 5 6 1023.4 1023.4 0.0
20/05:00am 10.3 7.9 6.8 79 1.6 NW 9 11 5 6 1023.2 1023.2 0.0
20/04:30am 10.1 7.3 6.8 80 1.5 NW 11 13 6 7 1023.1 1023.1 0.0
20/04:00am 9.8 7.0 6.9 82 1.4 NNW 11 13 6 7 1022.8 1022.8 0.0
20/03:30am 9.2 6.8 7.0 86 1.0 NNW 9 9 5 5 1022.8 1022.8 0.0
20/03:07am 9.2 7.7 7.0 86 1.0 SW 4 7 2 4 1022.8 1022.8 0.0
20/03:00am 9.1 7.1 6.9 86 1.0 SW 7 9 4 5 1023.0 1023.0 0.0
20/02:51am 8.9 6.3 6.3 84 1.2 WSW 9 13 5 7 1023.0 1023.0 0.0
20/02:30am 8.2 5.8 5.1 81 1.4 W 7 11 4 6 1022.8 1022.8 0.0
20/02:00am 7.1 3.4 4.2 82 1.3 NW 13 15 7 8 1022.6 1022.6 0.0
20/01:30am 6.6 2.8 3.9 83 1.1 NW 13 13 7 7 1022.8 1022.8 0.0
20/01:00am 6.1 2.4 2.6 78 1.4 NW 11 11 6 6 1022.9 1022.9 0.0
20/12:30am 6.5 2.9 2.8 77 1.5 NW 11 11 6 6 1023.0 1023.0 0.0
20/12:00am 7.5 4.4 3.7 77 1.6 NW 9 9 5 5 1023.0 1023.0 0.0
 
Date/Time
CST
Temp
°C
App
Temp
°C
Dew
Point
°C
Rel
Hum
%
Delta-T
°C
Wind Press
QNH
hPa
Press
MSL
hPa
Rain since
9am
mm
Dir  Spd
km/h
Gust
km/h
Spd
kts
Gust
kts
19/11:30pm 7.3 4.4 2.8 73 1.9 W 7 9 4 5 1023.0 1023.0 0.0
19/11:00pm 8.0 4.9 3.8 75 1.8 WSW 9 11 5 6 1023.1 1023.1 0.0
19/10:30pm 7.8 5.1 3.5 74 1.8 WNW 7 11 4 6 1023.0 1023.0 0.0
19/10:00pm 8.3 5.6 3.9 74 1.9 WNW 7 9 4 5 1023.0 1023.0 0.0
19/09:30pm 9.0 6.9 3.8 70 2.2 WNW 4 9 2 5 1022.9 1022.9 0.0
19/09:00pm 10.7 9.0 5.7 71 2.3 WNW 4 6 2 3 1022.5 1022.5 0.0
19/08:30pm 11.5 10.7 6.4 71 2.4 CALM 0 0 0 0 1022.2 1022.2 0.0
19/08:00pm 12.2 11.6 7.3 72 2.4 CALM 0 0 0 0 1021.9 1021.9 0.0
19/07:30pm 12.5 10.8 7.6 72 2.4 SSE 6 7 3 4 1021.6 1021.6 0.0
19/07:00pm 13.1 11.3 8.0 71 2.5 SSE 7 11 4 6 1021.3 1021.3 0.0
19/06:30pm 13.4 11.5 7.4 67 2.9 SE 7 11 4 6 1021.0 1021.0 0.0
19/06:00pm 13.5 11.5 7.1 65 3.1 ESE 7 11 4 6 1020.8 1020.8 0.0
19/05:30pm 13.6 11.2 6.9 64 3.2 SSE 9 13 5 7 1020.5 1020.5 0.0
19/05:00pm 13.9 10.5 6.0 59 3.8 SE 13 17 7 9 1020.4 1020.4 0.0
19/04:30pm 14.1 10.2 5.5 56 4.0 SE 15 20 8 11 1020.3 1020.3 0.0
19/04:00pm 14.1 9.9 5.5 56 4.1 SSE 17 22 9 12 1020.3 1020.3 0.0
19/03:30pm 14.7 10.4 5.2 53 4.5 SE 17 24 9 13 1020.3 1020.3 0.0
19/03:00pm 14.8 9.8 4.5 50 4.8 SE 20 28 11 15 1020.0 1020.0 0.0
19/02:30pm 15.9 10.8 4.0 45 5.5 SE 20 28 11 15 1020.0 1020.0 0.0
19/02:00pm 15.8 10.6 3.3 43 5.7 SSE 20 30 11 16 1020.2 1020.2 0.0
19/01:30pm 15.9 11.2 5.2 49 5.1 SE 19 24 10 13 1020.3 1020.3 0.0
19/01:00pm 15.8 11.1 5.1 49 5.1 SE 19 24 10 13 1020.5 1020.5 0.0
19/12:30pm 15.6 11.2 4.6 48 5.1 SE 17 22 9 12 1020.6 1020.6 0.0
19/12:00pm 15.8 10.9 4.2 46 5.4 SE 19 28 10 15 1020.8 1020.8 0.0
19/11:30am 15.8 11.3 2.2 40 6.0 S 15 22 8 12 1021.0 1021.0 0.0
19/11:00am 14.8 10.6 3.9 48 5.0 S 15 22 8 12 1021.2 1021.2 0.0
19/10:30am 14.8 8.7 3.0 45 5.3 SW 24 33 13 18 1021.2 1021.2 0.0
19/10:00am 14.9 9.2 2.8 44 5.4 SW 22 33 12 18 1021.2 1021.2 0.0
19/09:30am 13.9 8.9 3.7 50 4.6 SW 19 28 10 15 1021.1 1021.1 0.0
19/09:00am 13.6 8.5 4.2 53 4.3 SW 20 26 11 14 1021.0 1021.0 0.0
19/08:30am 12.3 8.7 4.8 60 3.4 W 13 22 7 12 1020.8 1020.8 0.0
19/08:00am 10.4 6.9 5.4 71 2.3 WNW 13 17 7 9 1020.6 1020.6 0.0
19/07:30am 8.0 4.0 4.8 80 1.4 NW 15 20 8 11 1020.2 1020.2 0.0
19/07:00am 5.9 1.8 4.4 90 0.6 WNW 15 17 8 9 1019.9 1019.9 0.0
19/06:30am 4.3 0.0 3.3 93 0.4 NW 15 17 8 9 1019.7 1019.7 0.0
19/06:00am 4.0 0.0 2.8 92 0.5 NW 13 15 7 8 1019.4 1019.4 0.0
19/05:30am 3.9 0.6 2.4 90 0.6 NW 9 13 5 7 1019.2 1019.2 0.0
19/05:00am 4.6 1.0 3.1 90 0.6 NW 11 13 6 7 1018.8 1018.8 0.0
19/04:30am 4.3 0.7 3.0 91 0.5 NW 11 13 6 7 1018.4 1018.4 0.0
19/04:00am 4.0 -0.1 2.5 90 0.6 WNW 13 15 7 8 1018.3 1018.3 0.0
19/03:30am 4.4 0.3 2.4 87 0.8 NW 13 13 7 7 1018.2 1018.2 0.0
19/03:00am 4.8 1.1 2.5 85 0.9 NW 11 13 6 7 1018.3 1018.3 0.0
19/02:30am 5.1 2.1 2.3 82 1.1 NNW 7 9 4 5 1018.3 1018.3 0.0
19/02:00am 6.0 2.0 2.8 80 1.3 WNW 13 15 7 8 1018.4 1018.4 0.0
19/01:30am 6.4 2.4 2.9 78 1.4 WNW 13 17 7 9 1018.7 1018.7 0.0
19/01:00am 7.6 4.1 3.3 74 1.8 W 11 13 6 7 1018.8 1018.8 0.0
19/12:30am 7.8 3.8 2.9 71 2.1 WNW 13 15 7 8 1018.9 1018.9 0.0
19/12:00am 8.2 4.6 2.7 68 2.3 W 11 13 6 7 1019.1 1019.1 0.0
 
Date/Time
CST
Temp
°C
App
Temp
°C
Dew
Point
°C
Rel
Hum
%
Delta-T
°C
Wind Press
QNH
hPa
Press
MSL
hPa
Rain since
9am
mm
Dir  Spd
km/h
Gust
km/h
Spd
kts
Gust
kts
18/11:30pm 8.1 4.1 2.6 68 2.3 W 13 17 7 9 1019.2 1019.2 0.0
18/11:00pm 8.5 4.4 2.5 66 2.5 WSW 13 15 7 8 1019.2 1019.2 0.0
18/10:30pm 9.4 5.4 2.9 64 2.8 WSW 13 15 7 8 1019.1 1019.1 0.0
18/10:00pm 10.3 5.6 2.9 60 3.2 WSW 17 20 9 11 1019.0 1019.0 0.0
18/09:30pm 11.5 6.2 3.0 56 3.7 WSW 20 30 11 16 1018.8 1018.8 0.0
18/09:00pm 11.5 6.6 2.3 53 3.9 WSW 17 22 9 12 1018.2 1018.2 0.0
18/08:30pm 11.3 8.1 3.3 58 3.5 WSW 9 13 5 7 1018.0 1018.0 0.0
18/08:00pm 11.4 8.4 5.9 69 2.6 SW 11 17 6 9 1017.8 1017.8 0.0
18/07:30pm 9.8 7.0 5.2 73 2.1 SW 9 13 5 7 1017.2 1017.2 0.0
18/07:00pm 11.0 8.8 5.1 67 2.7 SSE 6 6 3 3 1016.7 1016.7 0.0
18/06:30pm 12.4 11.6 6.5 67 2.8 CALM 0 0 0 0 1016.2 1016.2 0.0
18/06:00pm 13.1 11.1 6.2 63 3.3 ESE 6 7 3 4 1015.9 1015.9 0.0
18/05:30pm 13.7 10.7 6.1 60 3.6 ESE 11 17 6 9 1015.4 1015.4 0.0
18/05:00pm 14.1 10.8 6.5 60 3.7 ESE 13 17 7 9 1015.0 1015.0 0.0
18/04:30pm 14.4 10.4 6.7 60 3.7 E 17 20 9 11 1014.6 1014.6 0.0
18/04:00pm 14.8 12.1 7.4 61 3.7 ENE 11 17 6 9 1014.6 1014.6 0.0
18/03:30pm 15.2 12.9 5.7 53 4.5 NE 7 11 4 6 1014.4 1014.4 0.0
18/03:00pm 15.5 12.1 5.7 52 4.7 NNE 13 17 7 9 1014.2 1014.2 0.0
18/02:30pm 14.8 9.9 5.3 53 4.5 NNE 20 28 11 15 1013.6 1013.6 0.0
18/02:00pm 15.7 11.3 4.7 48 5.2 N 17 24 9 13 1013.7 1013.7 0.0
18/01:30pm 15.8 11.2 5.4 50 5.0 NNW 19 26 10 14 1014.1 1014.1 0.0
18/01:00pm 15.7 11.9 3.8 45 5.5 NW 13 20 7 11 1014.6 1014.6 0.0
18/12:30pm 14.9 10.9 3.1 45 5.3 W 13 19 7 10 1014.8 1014.8 0.0
18/12:00pm 14.9 10.6 3.1 45 5.3 W 15 20 8 11 1015.0 1015.0 0.0
18/11:30am 14.7 10.9 3.8 48 5.0 SSW 13 19 7 10 1015.2 1015.2 0.0
18/11:00am 15.1 10.4 3.0 44 5.5 WNW 17 22 9 12 1015.4 1015.4 0.0
18/10:30am 15.0 11.3 4.7 50 4.8 W 13 20 7 11 1015.5 1015.5 0.0
18/10:00am 14.6 12.2 7.2 61 3.6 WSW 9 15 5 8 1015.8 1015.8 0.0
18/09:30am 14.5 10.4 6.3 58 3.9 S 17 24 9 13 1015.6 1015.6 0.0
18/09:00am 14.7 10.4 7.0 60 3.8 WSW 19 22 10 12 1015.8 1015.8 0.0
18/08:30am 15.2 10.9 8.0 62 3.6 WSW 20 28 11 15 1015.6 1015.6 0.0

Other Formats:

Comma delimited format used in spreadsheet applications
http://www.bom.gov.au/fwo/IDS60801/IDS60801.95664.axf

JavaScript Object Notation format (JSON) in row-major order
http://www.bom.gov.au/fwo/IDS60801/IDS60801.95664.json